Time;durP1;ratioP1;P1;durP2;ratioP2;P2;SDS_P1;SDS_P2;PMS_P1;PMS_P2;Temp;Humidity;BMP_temperature;BMP_pressure;BME280_temperature;BME280_humidity;BME280_pressure;Samples;Min_cycle;Max_cycle;Signal;HPM_P1;HPM_P2
2023/08/02 00:01:13;;;;;;;;;4.00;4.00;;;;;17.81;64.20;98512.22;5063623;28;9060;-77
2023/08/02 00:03:42;;;;;;;;;4.60;4.00;;;;;17.89;63.64;98525.84;5072416;28;8866;-75
2023/08/02 00:06:21;;;;;;;;;4.20;4.20;;;;;17.78;63.64;98531.91;5068497;28;8855;-77
2023/08/02 00:08:50;;;;;;;;;4.00;4.00;;;;;17.54;64.33;98537.03;5068910;28;9650;-77
2023/08/02 00:11:20;;;;;;;;;9.80;9.00;;;;;17.40;64.70;98535.28;5068459;28;8861;-76
2023/08/02 00:13:49;;;;;;;;;8.00;8.00;;;;;17.49;63.98;98539.97;5067931;28;8858;-76
2023/08/02 00:16:18;;;;;;;;;9.80;9.80;;;;;16.67;67.35;98548.75;5071515;28;8898;-75
2023/08/02 00:18:47;;;;;;;;;14.60;13.60;;;;;16.79;67.09;98550.63;5085363;28;8836;-76
2023/08/02 00:21:16;;;;;;;;;16.20;14.40;;;;;16.73;66.76;98541.25;5091583;28;8929;-77
2023/08/02 00:23:44;;;;;;;;;16.80;15.40;;;;;16.73;67.11;98543.06;5092053;28;8840;-76
2023/08/02 00:26:13;;;;;;;;;18.80;15.80;;;;;16.85;67.03;98550.25;5090462;28;8870;-75
2023/08/02 00:28:43;;;;;;;;;15.80;14.20;;;;;17.15;65.72;98544.78;5083539;28;8854;-75
2023/08/02 00:31:12;;;;;;;;;12.60;12.00;;;;;17.27;65.29;98545.84;5071332;28;8874;-76
2023/08/02 00:33:42;;;;;;;;;12.60;9.80;;;;;17.35;64.83;98543.53;5073373;28;8840;-75
2023/08/02 00:36:10;;;;;;;;;12.20;11.00;;;;;17.58;63.93;98550.00;5072119;28;8847;-75
2023/08/02 00:38:39;;;;;;;;;10.00;9.00;;;;;17.63;63.97;98555.03;5070895;28;8897;-76
2023/08/02 00:41:08;;;;;;;;;7.00;7.00;;;;;17.25;65.09;98560.13;5070554;28;8930;-77
2023/08/02 00:43:57;;;;;;;;;6.00;6.00;;;;;17.74;63.24;98564.91;5070479;28;8854;-76
2023/08/02 00:46:27;;;;;;;;;6.20;6.20;;;;;17.55;63.97;98547.56;5070292;28;8839;-77
2023/08/02 00:48:57;;;;;;;;;4.20;4.20;;;;;17.50;64.22;98546.16;5070397;28;8842;-77
2023/08/02 00:51:27;;;;;;;;;4.40;4.40;;;;;17.41;64.74;98557.38;5019271;28;8874;-76
2023/08/02 00:53:56;;;;;;;;;4.00;4.00;;;;;17.44;64.49;98565.13;5092967;28;8894;-78
2023/08/02 00:56:25;;;;;;;;;4.60;4.60;;;;;17.42;64.70;98567.91;5093327;28;9700;-76
2023/08/02 00:58:54;;;;;;;;;5.00;4.00;;;;;17.62;63.80;98574.56;5099403;28;8898;-75
2023/08/02 01:01:25;;;;;;;;;3.00;3.00;;;;;17.52;64.34;98586.75;5088822;28;8884;-77
2023/08/02 01:03:57;;;;;;;;;4.60;4.00;;;;;17.28;65.05;98595.34;5071943;28;8868;-75
2023/08/02 01:06:35;;;;;;;;;5.60;4.00;;;;;17.27;65.56;98601.63;5089012;28;8859;-76
2023/08/02 01:09:12;;;;;;;;;3.60;3.60;;;;;16.98;66.55;98592.81;5103464;28;8823;-75
2023/08/02 01:11:47;;;;;;;;;4.00;4.00;;;;;17.10;66.19;98605.31;5074832;28;8916;-76
2023/08/02 01:14:20;;;;;;;;;2.40;2.40;;;;;17.16;65.85;98609.38;5105421;28;8844;-75
2023/08/02 01:16:52;;;;;;;;;4.00;4.00;;;;;16.71;67.88;98611.31;5071071;28;8844;-77
2023/08/02 01:19:22;;;;;;;;;3.20;3.20;;;;;16.16;70.25;98607.50;5050840;28;8927;-76
2023/08/02 01:21:53;;;;;;;;;2.80;2.80;;;;;16.08;70.89;98615.91;5051212;28;8838;-75
2023/08/02 01:24:27;;;;;;;;;3.00;3.00;;;;;15.76;72.56;98625.72;5046498;28;8833;-78
2023/08/02 01:26:56;;;;;;;;;2.40;2.40;;;;;15.92;71.73;98625.69;5030514;28;8918;-75
2023/08/02 01:29:27;;;;;;;;;2.00;2.00;;;;;16.10;70.86;98611.34;5049314;28;8866;-75
2023/08/02 01:31:57;;;;;;;;;3.40;3.40;;;;;16.34;69.76;98613.47;5067362;28;8852;-76
2023/08/02 01:34:28;;;;;;;;;5.40;3.80;;;;;16.39;69.67;98617.56;5067189;28;8851;-75
2023/08/02 01:36:58;;;;;;;;;2.80;2.80;;;;;16.53;68.84;98615.91;5050535;28;8929;-75
2023/08/02 01:39:27;;;;;;;;;2.00;2.00;;;;;16.40;69.38;98613.97;5067250;28;8945;-76
2023/08/02 01:41:56;;;;;;;;;2.00;2.00;;;;;16.78;67.73;98616.13;5067656;28;9563;-76
2023/08/02 01:44:25;;;;;;;;;2.00;1.80;;;;;16.76;67.92;98623.34;5066278;28;8866;-77
2023/08/02 01:46:54;;;;;;;;;2.00;2.00;;;;;16.67;68.41;98623.91;5068130;28;8982;-76
2023/08/02 01:49:23;;;;;;;;;1.80;1.80;;;;;16.84;67.86;98608.75;5018406;28;8832;-77
2023/08/02 01:51:51;;;;;;;;;2.00;2.00;;;;;16.88;67.50;98610.25;5047204;28;8989;-75
2023/08/02 01:54:22;;;;;;;;;3.80;3.60;;;;;16.72;68.16;98623.59;5043381;28;8868;-75
2023/08/02 01:56:50;;;;;;;;;2.80;1.80;;;;;16.75;67.90;98624.28;5050278;28;8861;-74
2023/08/02 01:59:19;;;;;;;;;3.80;2.80;;;;;16.44;69.46;98620.00;5050991;28;8948;-76
2023/08/02 02:01:48;;;;;;;;;1.80;1.80;;;;;16.13;70.62;98621.75;5082541;28;8975;-75
2023/08/02 02:04:17;;;;;;;;;1.80;1.80;;;;;16.56;68.88;98610.44;5089233;28;8949;-78
2023/08/02 02:06:45;;;;;;;;;2.80;2.80;;;;;16.38;69.49;98623.00;5049876;28;8874;-78
2023/08/02 02:09:15;;;;;;;;;2.40;1.80;;;;;16.23;70.37;98622.09;5048060;28;8871;-78
2023/08/02 02:11:45;;;;;;;;;2.40;2.00;;;;;16.18;70.66;98621.50;5016310;28;8883;-79
2023/08/02 02:14:14;;;;;;;;;1.00;1.00;;;;;15.78;72.80;98643.22;5067558;28;8854;-77
2023/08/02 02:16:43;;;;;;;;;2.00;1.40;;;;;15.68;73.40;98652.66;5068438;28;8862;-75
2023/08/02 02:19:12;;;;;;;;;2.00;2.00;;;;;15.57;74.10;98650.56;5066366;28;8853;-75
2023/08/02 02:21:41;;;;;;;;;1.60;1.60;;;;;15.71;73.47;98648.97;5064795;28;8875;-76
2023/08/02 02:24:10;;;;;;;;;2.40;2.00;;;;;15.74;73.47;98656.75;5048953;28;8871;-76
2023/08/02 02:26:38;;;;;;;;;0.60;0.60;;;;;15.54;74.32;98657.81;5064548;28;8852;-78
2023/08/02 02:29:09;;;;;;;;;2.00;1.60;;;;;15.35;75.46;98656.19;5048315;28;8873;-79
2023/08/02 02:31:38;;;;;;;;;2.40;2.40;;;;;15.43;75.14;98669.88;5023834;28;9006;-76
2023/08/02 02:34:07;;;;;;;;;2.20;2.20;;;;;15.28;75.81;98661.91;5054735;28;8843;-74
2023/08/02 02:36:38;;;;;;;;;3.40;2.60;;;;;15.28;76.13;98664.53;5089005;28;8875;-74
2023/08/02 02:39:07;;;;;;;;;2.00;2.00;;;;;15.37;75.56;98670.19;5087892;28;8851;-74
2023/08/02 02:41:36;;;;;;;;;3.60;2.80;;;;;15.02;77.69;98693.28;5066475;28;9755;-78
2023/08/02 02:44:05;;;;;;;;;2.80;2.60;;;;;15.01;77.85;98689.75;5067326;28;8883;-75
2023/08/02 02:46:35;;;;;;;;;2.40;2.40;;;;;14.91;78.83;98700.94;5066180;28;8846;-73
2023/08/02 02:49:04;;;;;;;;;1.20;1.20;;;;;15.30;76.92;98702.38;5065863;28;9651;-72
2023/08/02 02:51:33;;;;;;;;;2.00;2.00;;;;;15.12;77.42;98699.78;5063992;28;8848;-74
2023/08/02 02:54:02;;;;;;;;;2.20;2.20;;;;;15.35;76.47;98706.50;5005943;28;8847;-74
2023/08/02 02:56:31;;;;;;;;;1.00;1.00;;;;;15.51;75.29;98695.94;4990137;28;8858;-77
2023/08/02 02:59:00;;;;;;;;;0.60;0.60;;;;;15.41;75.85;98698.22;4989985;28;8862;-74
2023/08/02 03:01:29;;;;;;;;;1.80;1.80;;;;;15.50;75.46;98696.88;4986838;28;8856;-76
2023/08/02 03:03:59;;;;;;;;;1.40;1.40;;;;;16.00;73.19;98687.91;4970561;28;8887;-75
2023/08/02 03:06:28;;;;;;;;;1.40;1.40;;;;;16.08;72.03;98689.25;4987329;28;8970;-78
2023/08/02 03:08:57;;;;;;;;;1.60;1.60;;;;;15.92;72.65;98692.78;5006541;28;8892;-75
2023/08/02 03:11:25;;;;;;;;;1.20;0.60;;;;;16.00;72.05;98673.78;5005959;28;8846;-74
2023/08/02 03:13:54;;;;;;;;;0.40;0.40;;;;;16.10;71.41;98688.25;5006092;28;8920;-75
2023/08/02 03:16:23;;;;;;;;;0.40;0.40;;;;;16.31;70.24;98688.78;5006062;28;8885;-78
2023/08/02 03:18:52;;;;;;;;;0.60;0.60;;;;;16.24;70.41;98687.44;5024576;28;8848;-75
2023/08/02 03:21:22;;;;;;;;;1.60;1.60;;;;;16.14;71.16;98700.38;5025786;28;8882;-75
2023/08/02 03:23:51;;;;;;;;;2.00;1.00;;;;;16.02;71.63;98709.03;4983614;28;8858;-76
2023/08/02 03:26:20;;;;;;;;;1.80;1.80;;;;;16.26;70.35;98705.91;5026263;28;9000;-76
2023/08/02 03:28:49;;;;;;;;;2.00;1.00;;;;;16.03;71.57;98718.69;5029027;28;8861;-74
2023/08/02 03:31:17;;;;;;;;;1.60;1.00;;;;;16.18;70.59;98725.75;4994187;28;8856;-74
2023/08/02 03:33:46;;;;;;;;;2.00;2.00;;;;;15.67;73.45;98737.50;5025360;28;8878;-77
2023/08/02 03:36:16;;;;;;;;;0.00;0.00;;;;;15.77;72.70;98734.25;5025584;28;8847;-76
2023/08/02 03:38:46;;;;;;;;;1.40;1.40;;;;;15.83;72.43;98739.22;5025401;28;8903;-74
2023/08/02 03:41:15;;;;;;;;;1.20;0.40;;;;;15.87;72.12;98739.91;5007409;28;8866;-75
2023/08/02 03:43:44;;;;;;;;;1.40;1.40;;;;;15.75;72.79;98741.41;5006162;28;8874;-75
2023/08/02 03:46:12;;;;;;;;;1.60;0.60;;;;;15.70;73.05;98734.66;5005462;28;8866;-78
2023/08/02 03:48:41;;;;;;;;;1.40;1.40;;;;;15.61;73.43;98739.53;4978547;28;8878;-79
2023/08/02 03:51:10;;;;;;;;;2.20;1.60;;;;;15.73;72.73;98747.75;5008967;28;8859;-78
2023/08/02 03:53:39;;;;;;;;;1.80;1.80;;;;;15.95;71.62;98748.28;5009535;28;8946;-78
2023/08/02 03:56:09;;;;;;;;;1.60;1.60;;;;;15.78;72.10;98743.91;5045578;28;8849;-75
2023/08/02 03:58:38;;;;;;;;;1.40;1.40;;;;;15.99;71.06;98752.47;5016304;28;8870;-76
2023/08/02 04:01:07;;;;;;;;;2.20;2.20;;;;;15.94;71.29;98757.16;5032806;28;8873;-75
2023/08/02 04:03:36;;;;;;;;;1.80;1.80;;;;;15.58;73.11;98766.16;5032630;28;8960;-78
2023/08/02 04:06:05;;;;;;;;;0.60;0.60;;;;;15.62;72.73;98756.28;5048980;28;8847;-74
2023/08/02 04:08:34;;;;;;;;;0.80;0.80;;;;;15.39;73.66;98758.34;5052953;28;8982;-74
2023/08/02 04:11:05;;;;;;;;;1.60;0.60;;;;;15.39;73.84;98758.34;5053192;28;8846;-75
2023/08/02 04:13:36;;;;;;;;;0.80;0.80;;;;;15.29;74.37;98782.78;5042026;28;8850;-75
2023/08/02 04:16:04;;;;;;;;;1.80;1.00;;;;;15.08;75.45;98785.59;5049161;28;8847;-77
2023/08/02 04:18:33;;;;;;;;;1.60;1.60;;;;;15.26;74.57;98797.00;5048321;28;8862;-76
2023/08/02 04:21:02;;;;;;;;;2.20;2.20;;;;;15.06;75.42;98808.66;5031843;28;9696;-76
2023/08/02 04:23:31;;;;;;;;;4.00;4.00;;;;;15.11;75.31;98795.16;5032056;28;8846;-78
2023/08/02 04:26:00;;;;;;;;;2.60;1.80;;;;;15.23;74.55;98797.19;5056171;28;8871;-75
2023/08/02 04:28:29;;;;;;;;;2.00;1.00;;;;;15.23;74.31;98800.69;5079747;28;9007;-76
2023/08/02 04:30:59;;;;;;;;;3.00;2.00;;;;;15.37;74.02;98817.63;5055275;28;8958;-75
2023/08/02 04:33:28;;;;;;;;;1.60;1.60;;;;;15.43;72.98;98822.59;5071697;28;8829;-78
2023/08/02 04:35:58;;;;;;;;;3.60;1.60;;;;;15.04;74.70;98827.25;5071933;28;8834;-78
2023/08/02 04:38:27;;;;;;;;;0.80;0.80;;;;;15.15;74.54;98816.13;5077383;28;9016;-78
2023/08/02 04:40:57;;;;;;;;;0.60;0.60;;;;;15.26;73.90;98818.19;5019425;28;9097;-79
2023/08/02 04:43:26;;;;;;;;;1.00;0.80;;;;;15.30;73.81;98825.03;5070707;28;8929;-79
2023/08/02 04:45:55;;;;;;;;;1.40;1.40;;;;;15.15;74.15;98829.34;5035319;28;8872;-79
2023/08/02 04:48:25;;;;;;;;;2.00;1.80;;;;;15.37;73.64;98825.59;5051577;28;9667;-76
2023/08/02 04:50:54;;;;;;;;;2.60;2.60;;;;;15.64;72.38;98829.47;5051290;28;8860;-76
2023/08/02 04:53:23;;;;;;;;;2.00;2.00;;;;;15.70;71.95;98835.34;5051147;28;8863;-78
2023/08/02 04:55:51;;;;;;;;;2.00;2.00;;;;;16.06;70.39;98824.56;5051330;28;8876;-77
2023/08/02 04:58:23;;;;;;;;;1.60;0.80;;;;;15.68;71.41;98826.63;5051233;28;8868;-76
2023/08/02 05:00:52;;;;;;;;;1.40;0.60;;;;;15.58;71.89;98823.59;5068003;28;9004;-74
2023/08/02 05:03:21;;;;;;;;;2.60;2.60;;;;;15.48;71.92;98827.69;5050359;28;8896;-76
2023/08/02 05:05:51;;;;;;;;;1.60;1.60;;;;;15.61;71.50;98819.03;5032637;28;8914;-75
2023/08/02 05:08:20;;;;;;;;;1.60;1.60;;;;;15.83;70.58;98813.44;5058027;28;8929;-78
2023/08/02 05:10:49;;;;;;;;;2.00;2.00;;;;;15.96;70.05;98812.75;5069842;28;8901;-79
2023/08/02 05:13:17;;;;;;;;;1.60;1.60;;;;;16.31;68.65;98808.13;5069948;28;8854;-78
2023/08/02 05:15:46;;;;;;;;;1.80;1.80;;;;;16.13;69.10;98804.69;5034839;28;8843;-79
2023/08/02 05:18:15;;;;;;;;;2.00;2.00;;;;;16.14;69.10;98797.63;5068763;28;8885;-77
2023/08/02 05:20:44;;;;;;;;;2.00;2.00;;;;;16.39;69.05;98795.28;5066130;28;8851;-80
2023/08/02 05:23:14;;;;;;;;;1.00;1.00;;;;;16.32;68.70;98816.94;5091993;28;8851;-76
2023/08/02 05:25:43;;;;;;;;;4.40;4.40;;;;;16.02;70.30;98823.88;5071883;28;8848;-77
2023/08/02 05:28:12;;;;;;;;;2.80;2.40;;;;;15.89;72.16;98821.97;5021120;28;8850;-76
2023/08/02 05:30:40;;;;;;;;;1.80;1.80;;;;;16.03;70.72;98830.03;5064691;28;8972;-77
2023/08/02 05:33:09;;;;;;;;;3.20;1.80;;;;;16.06;71.49;98821.91;5066726;28;8866;-71
2023/08/02 05:35:38;;;;;;;;;2.40;2.00;;;;;16.32;70.32;98817.81;5050740;28;8969;-71
2023/08/02 05:38:07;;;;;;;;;0.80;0.80;;;;;16.80;67.85;98815.94;5074601;28;8831;-71
2023/08/02 05:40:37;;;;;;;;;2.60;2.60;;;;;16.97;66.62;98820.28;5058382;28;8866;-73
2023/08/02 05:43:06;;;;;;;;;2.00;2.00;;;;;17.28;65.04;98829.09;5069663;28;8923;-73
2023/08/02 05:45:35;;;;;;;;;3.00;2.40;;;;;17.72;64.54;98835.28;5066034;28;9643;-73
2023/08/02 05:48:04;;;;;;;;;1.80;1.80;;;;;18.08;63.06;98841.94;5056054;28;8864;-72
2023/08/02 05:50:33;;;;;;;;;15.60;15.60;;;;;18.16;62.46;98843.19;5069196;28;8969;-71
2023/08/02 05:53:03;;;;;;;;;5.00;5.00;;;;;18.52;61.96;98846.22;5068765;28;8853;-71
2023/08/02 05:55:31;;;;;;;;;4.00;4.00;;;;;18.81;62.10;98844.34;5088933;28;9589;-73
2023/08/02 05:58:01;;;;;;;;;4.80;4.80;;;;;19.11;60.77;98828.09;5068797;28;8861;-73
2023/08/02 06:00:30;;;;;;;;;4.00;4.00;;;;;19.31;60.39;98831.25;5067859;28;8850;-73
2023/08/02 06:02:59;;;;;;;;;4.00;4.00;;;;;19.45;59.79;98839.13;5068757;28;9655;-73
2023/08/02 06:05:28;;;;;;;;;4.00;2.40;;;;;19.58;58.62;98832.97;5069234;28;8854;-73
2023/08/02 06:07:57;;;;;;;;;3.00;3.00;;;;;19.38;58.16;98837.84;5069194;28;8884;-73
2023/08/02 06:10:26;;;;;;;;;3.00;3.00;;;;;19.48;58.28;98836.25;5069324;28;8901;-73
2023/08/02 06:12:55;;;;;;;;;3.00;3.00;;;;;19.12;58.19;98861.78;5068693;28;8838;-71
2023/08/02 06:15:25;;;;;;;;;3.60;2.60;;;;;18.81;59.17;98870.13;5050036;28;9033;-72
2023/08/02 06:17:54;;;;;;;;;7.60;6.20;;;;;18.10;61.42;98878.16;5067691;28;8857;-76
2023/08/02 06:20:22;;;;;;;;;5.40;5.40;;;;;18.01;62.51;98880.50;5066650;28;8858;-76
2023/08/02 06:22:51;;;;;;;;;3.20;3.20;;;;;18.32;61.38;98874.13;5066768;28;8870;-76
2023/08/02 06:25:20;;;;;;;;;3.60;3.60;;;;;18.77;60.33;98863.25;5066701;28;8831;-79
2023/08/02 06:27:49;;;;;;;;;13.40;12.20;;;;;18.86;59.58;98860.03;5067172;28;8858;-78
2023/08/02 06:30:17;;;;;;;;;8.20;6.60;;;;;19.12;59.12;98867.13;5067341;28;9004;-80
2023/08/02 06:32:48;;;;;;;;;5.00;3.20;;;;;19.34;57.94;98873.66;5066602;28;8839;-79
2023/08/02 06:35:17;;;;;;;;;4.00;4.00;;;;;19.59;57.37;98875.50;5084296;28;9032;-76
2023/08/02 06:37:46;;;;;;;;;7.00;5.80;;;;;19.83;56.85;98861.44;5067550;28;8850;-76
2023/08/02 06:40:14;;;;;;;;;8.00;7.40;;;;;19.90;56.25;98866.22;5060119;28;9626;-76
2023/08/02 06:42:43;;;;;;;;;3.00;3.00;;;;;19.94;55.76;98876.69;5056331;28;8996;-75
2023/08/02 06:45:12;;;;;;;;;3.40;2.20;;;;;20.11;55.68;98881.69;5065413;28;8846;-72
2023/08/02 06:47:41;;;;;;;;;5.60;5.60;;;;;20.10;55.87;98874.63;5056771;28;8877;-75
2023/08/02 06:50:11;;;;;;;;;4.00;3.20;;;;;20.15;55.74;98876.97;5068402;28;8846;-74
2023/08/02 06:52:40;;;;;;;;;4.00;3.20;;;;;20.31;55.39;98868.75;5068161;28;9718;-75
2023/08/02 06:55:09;;;;;;;;;6.00;6.00;;;;;20.47;54.58;98862.19;5083496;28;8881;-74
2023/08/02 06:57:38;;;;;;;;;3.00;1.00;;;;;20.62;54.00;98864.69;5068358;28;8842;-75
2023/08/02 07:00:08;;;;;;;;;4.00;4.00;;;;;20.58;53.88;98866.75;5068333;28;8931;-75
2023/08/02 07:02:38;;;;;;;;;4.00;4.00;;;;;20.12;55.20;98880.69;5001273;28;8900;-75
2023/08/02 07:05:07;;;;;;;;;7.40;6.00;;;;;20.26;54.52;98874.44;5066628;28;8989;-75
2023/08/02 07:07:40;;;;;;;;;5.00;5.00;;;;;20.17;54.48;98881.22;5068483;28;8934;-74
2023/08/02 07:10:09;;;;;;;;;8.80;7.60;;;;;20.06;54.90;98882.00;5068627;28;8959;-77
2023/08/02 07:12:38;;;;;;;;;6.80;6.80;;;;;19.77;55.24;98880.53;5068409;28;9677;-75
2023/08/02 07:15:07;;;;;;;;;3.20;3.20;;;;;20.08;54.51;98877.44;5068073;28;8870;-76
2023/08/02 07:17:36;;;;;;;;;2.40;1.40;;;;;19.75;54.36;98888.66;5068001;28;8846;-75
2023/08/02 07:20:06;;;;;;;;;4.60;4.60;;;;;19.69;54.14;98886.41;5066853;28;8952;-74
2023/08/02 07:22:35;;;;;;;;;4.00;4.00;;;;;19.51;55.51;98876.03;5067190;28;8858;-74
2023/08/02 07:25:06;;;;;;;;;3.40;3.40;;;;;19.85;54.54;98873.69;5071905;28;8912;-75
2023/08/02 07:27:36;;;;;;;;;4.00;4.00;;;;;19.71;55.09;98880.00;5056390;28;8928;-75
2023/08/02 07:30:06;;;;;;;;;3.00;2.40;;;;;19.53;55.73;98889.25;5056890;28;8892;-75
2023/08/02 07:32:35;;;;;;;;;5.20;5.20;;;;;19.15;56.62;98886.53;5025417;28;8884;-74
2023/08/02 07:35:05;;;;;;;;;3.00;3.00;;;;;19.88;55.00;98883.31;5073607;28;8850;-74
2023/08/02 07:37:34;;;;;;;;;9.00;9.00;;;;;19.43;56.18;98883.69;5074975;28;8881;-75
2023/08/02 07:40:03;;;;;;;;;2.80;2.80;;;;;18.86;56.79;98890.16;5074823;28;8835;-75
2023/08/02 07:42:33;;;;;;;;;4.20;4.20;;;;;18.47;58.44;98909.53;5074619;28;8923;-74
2023/08/02 07:45:03;;;;;;;;;2.60;2.60;;;;;18.35;59.04;98903.19;5056841;28;9589;-76
2023/08/02 07:47:32;;;;;;;;;3.20;3.00;;;;;18.26;59.89;98899.31;5073653;28;8850;-77
2023/08/02 07:50:01;;;;;;;;;3.20;3.20;;;;;18.44;59.33;98902.63;5074928;28;8839;-74
2023/08/02 07:52:30;;;;;;;;;3.20;3.00;;;;;18.34;59.94;98899.66;5073244;28;8834;-76
2023/08/02 07:54:58;;;;;;;;;2.00;2.00;;;;;18.30;60.26;98899.97;5074859;28;9370;-78
2023/08/02 07:57:31;;;;;;;;;4.00;2.80;;;;;18.08;60.36;98900.47;5074513;28;8894;-77
2023/08/02 08:00:02;;;;;;;;;2.00;1.40;;;;;18.39;59.75;98909.19;5073625;28;8923;-76
2023/08/02 08:02:39;;;;;;;;;1.40;1.40;;;;;18.59;59.19;98900.78;5074707;28;8894;-75
2023/08/02 08:05:09;;;;;;;;;3.80;2.40;;;;;19.07;57.53;98906.53;5073291;28;8885;-77
2023/08/02 08:07:38;;;;;;;;;4.00;3.00;;;;;19.37;56.68;98897.44;5072985;28;8850;-77
2023/08/02 08:10:07;;;;;;;;;3.00;3.00;;;;;19.55;56.16;98905.16;5074295;28;8862;-76
2023/08/02 08:12:37;;;;;;;;;3.00;3.00;;;;;19.05;58.13;98891.63;5074578;28;8869;-76
2023/08/02 08:15:08;;;;;;;;;2.00;2.00;;;;;19.22;57.19;98894.00;5074487;28;8842;-75
2023/08/02 08:17:37;;;;;;;;;2.40;2.40;;;;;19.24;57.60;98886.75;5090056;28;8857;-77
2023/08/02 08:20:06;;;;;;;;;4.80;4.80;;;;;19.31;57.21;98888.03;5074246;28;8850;-78
2023/08/02 08:22:35;;;;;;;;;4.20;3.20;;;;;19.85;55.55;98883.50;5074370;28;8870;-76
2023/08/02 08:25:05;;;;;;;;;3.00;2.00;;;;;18.78;57.85;98894.25;5074857;28;8862;-77
2023/08/02 08:27:36;;;;;;;;;3.20;3.20;;;;;18.65;59.61;98907.53;5073480;28;8846;-78
2023/08/02 08:30:05;;;;;;;;;2.00;1.40;;;;;18.42;60.51;98907.19;5058762;28;8862;-78
2023/08/02 08:32:35;;;;;;;;;4.00;4.00;;;;;18.72;59.68;98906.13;5073510;28;8859;-77
2023/08/02 08:35:04;;;;;;;;;3.00;3.00;;;;;19.09;58.48;98903.75;5090575;28;8905;-76
2023/08/02 08:37:34;;;;;;;;;3.00;3.00;;;;;19.81;56.71;98900.69;5053750;28;8854;-75
2023/08/02 08:40:06;;;;;;;;;3.40;3.40;;;;;20.01;54.87;98897.50;5070946;28;8862;-75
2023/08/02 08:42:51;;;;;;;;;5.80;5.00;;;;;20.37;53.89;98893.19;5038731;28;8832;-78
2023/08/02 08:45:25;;;;;;;;;2.00;2.00;;;;;19.97;55.24;98904.00;5069691;28;8871;-77
2023/08/02 08:47:55;;;;;;;;;2.60;2.60;;;;;19.45;57.06;98897.75;5069886;28;9749;-76
2023/08/02 08:50:26;;;;;;;;;4.80;4.00;;;;;19.78;56.10;98896.41;5053200;28;8860;-76
2023/08/02 08:52:57;;;;;;;;;5.20;5.20;;;;;20.49;54.68;98902.13;5071009;28;9670;-77
2023/08/02 08:55:29;;;;;;;;;4.20;4.20;;;;;20.27;54.12;98908.13;5071084;28;8874;-77
2023/08/02 08:57:58;;;;;;;;;3.20;3.20;;;;;20.76;52.07;98890.38;5070611;28;8844;-77
2023/08/02 09:00:38;;;;;;;;;2.00;1.60;;;;;20.86;51.55;98883.41;5071103;28;8872;-77
2023/08/02 09:03:09;;;;;;;;;5.00;4.00;;;;;20.28;53.92;98893.84;5069672;28;8877;-76
2023/08/02 09:05:38;;;;;;;;;2.00;1.20;;;;;20.16;55.10;98895.56;5086854;28;8839;-76
2023/08/02 09:08:07;;;;;;;;;3.00;3.00;;;;;20.36;54.24;98894.13;5074584;28;8842;-75
2023/08/02 09:10:36;;;;;;;;;5.40;4.00;;;;;20.98;52.95;98895.03;5059465;28;9689;-75
2023/08/02 09:13:05;;;;;;;;;3.20;3.20;;;;;21.12;52.39;98889.47;5071286;28;8846;-77
2023/08/02 09:15:33;;;;;;;;;4.60;4.60;;;;;21.49;51.15;98891.19;5052451;28;8890;-76
2023/08/02 09:18:02;;;;;;;;;3.40;3.40;;;;;21.04;51.40;98887.38;5069845;28;8839;-77
2023/08/02 09:20:33;;;;;;;;;11.20;10.80;;;;;21.14;51.67;98890.19;5071045;28;8870;-77
2023/08/02 09:23:15;;;;;;;;;4.80;4.80;;;;;21.89;50.52;98888.94;5071264;28;8850;-76
2023/08/02 09:25:44;;;;;;;;;6.40;5.80;;;;;22.08;48.86;98887.50;5070893;28;8874;-76
2023/08/02 09:28:12;;;;;;;;;7.40;7.40;;;;;22.44;48.04;98896.28;5072200;28;8850;-77
2023/08/02 09:30:41;;;;;;;;;5.00;5.00;;;;;21.47;49.10;98898.47;5070143;28;9067;-77
2023/08/02 09:33:10;;;;;;;;;3.40;3.40;;;;;21.24;50.31;98904.59;5070348;28;8842;-77
2023/08/02 09:35:51;;;;;;;;;1.20;1.20;;;;;21.37;49.41;98898.31;5070653;28;8893;-80
2023/08/02 09:38:20;;;;;;;;;3.20;3.20;;;;;21.74;48.53;98896.34;5070347;28;8877;-77
2023/08/02 09:40:49;;;;;;;;;7.00;7.00;;;;;22.15;48.22;98891.41;5052204;28;8880;-77
2023/08/02 09:43:22;;;;;;;;;4.80;4.40;;;;;22.50;46.45;98898.44;5069812;28;8866;-75
2023/08/02 09:45:50;;;;;;;;;5.00;4.00;;;;;22.74;46.14;98898.28;5070266;28;8866;-78
2023/08/02 09:48:19;;;;;;;;;4.60;4.60;;;;;22.91;44.70;98888.88;5082048;28;8860;-77
2023/08/02 09:50:57;;;;;;;;;5.00;5.00;;;;;23.22;44.34;98892.50;5051774;28;8954;-79
2023/08/02 09:53:26;;;;;;;;;4.00;4.00;;;;;23.60;44.12;98890.25;5048538;28;8861;-77
2023/08/02 09:55:56;;;;;;;;;3.20;3.20;;;;;23.76;42.22;98891.50;5050503;28;8880;-79
2023/08/02 09:58:30;;;;;;;;;3.00;3.00;;;;;23.99;42.02;98887.78;5048897;28;9588;-77
2023/08/02 10:00:59;;;;;;;;;5.00;5.00;;;;;24.33;41.74;98891.06;5060467;28;8875;-77
2023/08/02 10:03:29;;;;;;;;;3.40;3.40;;;;;24.32;40.84;98892.03;5066983;28;8900;-76
2023/08/02 10:06:03;;;;;;;;;6.60;6.00;;;;;23.92;41.56;98893.72;5050728;28;8865;-77
2023/08/02 10:08:34;;;;;;;;;4.40;4.40;;;;;23.73;41.30;98897.13;5067346;28;8902;-76
2023/08/02 10:11:05;;;;;;;;;5.00;5.00;;;;;22.72;43.73;98897.56;5067253;28;8894;-78
2023/08/02 10:13:39;;;;;;;;;0.00;0.00;;;;;23.32;42.47;98893.44;5066967;28;8953;-77
2023/08/02 10:16:08;;;;;;;;;4.60;3.40;;;;;23.73;42.29;98889.09;5067189;28;8848;-78
2023/08/02 10:18:42;;;;;;;;;3.80;3.60;;;;;23.58;42.14;98888.56;5050626;28;8855;-78
2023/08/02 10:21:14;;;;;;;;;4.40;4.40;;;;;23.99;42.03;98885.94;5033298;28;8842;-77
2023/08/02 10:23:44;;;;;;;;;4.20;4.20;;;;;23.96;42.50;98889.75;5050246;28;8858;-77
2023/08/02 10:26:13;;;;;;;;;3.80;3.80;;;;;24.13;41.65;98892.81;5066876;28;8846;-75
2023/08/02 10:28:43;;;;;;;;;2.20;2.20;;;;;24.45;40.38;98905.22;5001496;28;8837;-76
2023/08/02 10:31:12;;;;;;;;;2.80;2.80;;;;;24.76;40.10;98903.34;5067841;28;8829;-78
2023/08/02 10:33:41;;;;;;;;;2.00;2.00;;;;;24.99;39.46;98890.50;5067365;28;9817;-76
2023/08/02 10:36:10;;;;;;;;;7.80;7.80;;;;;24.17;40.64;98902.31;5050168;28;8972;-78
2023/08/02 10:38:54;;;;;;;;;4.20;3.00;;;;;23.14;42.96;98903.03;5067902;28;8848;-77
2023/08/02 10:41:25;;;;;;;;;5.20;5.20;;;;;23.23;42.95;98896.06;5085688;28;8844;-76
2023/08/02 10:44:11;;;;;;;;;2.80;2.80;;;;;23.99;41.82;98891.31;5070790;28;8994;-76
2023/08/02 10:46:40;;;;;;;;;5.00;4.80;;;;;24.11;41.02;98886.69;5069524;28;9602;-76
2023/08/02 10:49:39;;;;;;;;;6.00;5.60;;;;;24.37;40.46;98876.38;5069361;28;8893;-78
2023/08/02 10:52:39;;;;;;;;;3.20;3.20;;;;;24.40;40.34;98881.47;5069368;28;8883;-76
2023/08/02 10:55:12;;;;;;;;;3.80;3.80;;;;;24.53;39.88;98873.16;4990288;28;8824;-78
2023/08/02 10:58:05;;;;;;;;;5.40;5.40;;;;;24.85;39.68;98861.34;4990443;28;8844;-75
2023/08/02 11:00:37;;;;;;;;;4.80;4.80;;;;;23.92;40.96;98860.63;5006210;28;8848;-77
2023/08/02 11:03:05;;;;;;;;;5.00;5.00;;;;;24.59;40.08;98851.09;4990529;28;8870;-78
2023/08/02 11:05:43;;;;;;;;;2.80;2.80;;;;;24.69;38.60;98846.56;5006709;28;8872;-77
2023/08/02 11:08:12;;;;;;;;;9.20;9.20;;;;;24.72;39.01;98845.47;5006922;28;8879;-76
2023/08/02 11:10:49;;;;;;;;;5.00;5.00;;;;;24.02;40.46;98841.88;5006264;28;8864;-78
2023/08/02 11:13:19;;;;;;;;;8.40;8.40;;;;;24.12;40.21;98824.81;4990408;28;8878;-77
2023/08/02 11:15:59;;;;;;;;;6.00;6.00;;;;;24.08;40.01;98815.34;4958412;28;8880;-77
2023/08/02 11:18:30;;;;;;;;;5.00;5.00;;;;;24.64;39.91;98816.63;4990306;28;8862;-78
2023/08/02 11:21:10;;;;;;;;;3.80;3.80;;;;;25.22;38.09;98806.84;4990110;28;8874;-78
2023/08/02 11:23:41;;;;;;;;;5.40;3.60;;;;;25.32;37.91;98805.00;5010166;28;8881;-77
2023/08/02 11:26:16;;;;;;;;;3.20;3.20;;;;;25.81;37.10;98802.16;4982434;28;8847;-77
2023/08/02 11:28:49;;;;;;;;;2.80;2.80;;;;;26.14;36.45;98800.75;5021433;28;8835;-75
2023/08/02 11:31:19;;;;;;;;;3.20;3.20;;;;;26.09;35.81;98789.56;5050929;28;8885;-76
2023/08/02 11:33:48;;;;;;;;;3.80;3.80;;;;;26.50;35.93;98794.59;5067444;28;9437;-77
2023/08/02 11:36:17;;;;;;;;;4.00;3.80;;;;;26.83;35.39;98799.28;5085899;28;8816;-78
2023/08/02 11:38:46;;;;;;;;;3.40;3.40;;;;;26.11;35.56;98801.03;5069405;28;8997;-77
2023/08/02 11:41:18;;;;;;;;;4.60;4.60;;;;;25.85;36.68;98784.69;5020333;28;8875;-77
2023/08/02 11:43:48;;;;;;;;;6.20;6.20;;;;;25.81;37.03;98786.00;5086173;28;8977;-77
2023/08/02 11:46:21;;;;;;;;;3.40;3.40;;;;;26.29;36.08;98783.06;5069785;28;8885;-78
2023/08/02 11:48:50;;;;;;;;;2.80;2.80;;;;;26.66;35.13;98787.50;5052550;28;8994;-77
2023/08/02 11:51:21;;;;;;;;;2.80;2.80;;;;;26.82;35.41;98794.88;5052547;28;8836;-78
2023/08/02 11:53:51;;;;;;;;;2.60;2.60;;;;;27.25;34.79;98793.22;5053252;28;8856;-77
2023/08/02 11:56:24;;;;;;;;;5.00;5.00;;;;;26.84;34.35;98787.47;5052805;28;8852;-76